Time;durP1;ratioP1;P1;durP2;ratioP2;P2;SDS_P1;SDS_P2;PMS_P1;PMS_P2;Temp;Humidity;BMP_temperature;BMP_pressure;BME280_temperature;BME280_humidity;BME280_pressure;Samples;Min_cycle;Max_cycle;Signal;HPM_P1;HPM_P2
2022/07/20 00:00:02;;;;;;;;;;;;;;;;;;4996795;28;20040;-73
2022/07/20 00:02:36;;;;;;;;;;;;;;;;;;4998235;28;19930;-72
2022/07/20 00:05:03;;;;;;;;;;;;;;;;;;4995752;28;19968;-71
2022/07/20 00:07:31;;;;;;;;;;;;;;;;;;5000826;28;20004;-71
2022/07/20 00:12:44;;;;;;;;;;;;;;;;;;4993659;28;20475;-72
2022/07/20 00:15:11;;;;;;;;;;;;;;;;;;4995562;28;19929;-71
2022/07/20 00:17:39;;;;;;;;;;;;;;;;;;4999099;28;19936;-72
2022/07/20 00:20:06;;;;;;;;;;;;;;;;;;4991059;28;19925;-71
2022/07/20 00:22:33;;;;;;;;;;;;;;;;;;4994902;28;19953;-70
2022/07/20 00:25:01;;;;;;;;;;;;;;;;;;4959681;28;19936;-70
2022/07/20 00:27:28;;;;;;;;;;;;;;;;;;4995724;28;19939;-72
2022/07/20 00:29:55;;;;;;;;;;;;;;;;;;4961868;28;19929;-72
2022/07/20 00:32:23;;;;;;;;;;;;;;;;;;5000569;28;19969;-72
2022/07/20 00:34:50;;;;;;;;;;;;;;;;;;4997292;28;19931;-73
2022/07/20 00:37:17;;;;;;;;;;;;;;;;;;4999984;28;19929;-71
2022/07/20 00:39:45;;;;;;;;;;;;;;;;;;5002800;28;19933;-73
2022/07/20 00:42:12;;;;;;;;;;;;;;;;;;5009491;28;20415;-73
2022/07/20 00:44:39;;;;;;;;;;;;;;;;;;5001507;28;19933;-72
2022/07/20 00:47:07;;;;;;;;;;;;;;;;;;5003525;28;19929;-71
2022/07/20 00:49:34;;;;;;;;;;;;;;;;;;5003704;28;19940;-72
2022/07/20 00:52:01;;;;;;;;;;;;;;;;;;5000219;28;19925;-73
2022/07/20 00:54:29;;;;;;;;;;;;;;;;;;4988453;28;19936;-73
2022/07/20 00:56:56;;;;;;;;;;;;;;;;;;5000789;28;19956;-72
2022/07/20 00:59:23;;;;;;;;;;;;;;;;;;5005111;28;19944;-73
2022/07/20 01:01:51;;;;;;;;;;;;;;;;;;4990335;28;20016;-72
2022/07/20 01:04:18;;;;;;;;;;;;;;;;;;4968313;28;20471;-71
2022/07/20 01:06:46;;;;;;;;;;;;;;;;;;4974171;28;20296;-74
2022/07/20 01:09:13;;;;;;;;;;;;;;;;;;5006495;28;20348;-72
2022/07/20 01:11:40;;;;;;;;;;;;;;;;;;4997760;28;20602;-74
2022/07/20 01:14:07;;;;;;;;;;;;;;;;;;4995738;28;19929;-72
2022/07/20 01:16:35;;;;;;;;;;;;;;;;;;4983324;28;21736;-73
2022/07/20 01:19:02;;;;;;;;;;;;;;;;;;4986421;28;19937;-73
2022/07/20 01:21:29;;;;;;;;;;;;;;;;;;4995519;28;19929;-73
2022/07/20 01:23:57;;;;;;;;;;;;;;;;;;5003573;28;19965;-71
2022/07/20 01:26:24;;;;;;;;;;;;;;;;;;4999699;28;20147;-72
2022/07/20 01:28:52;;;;;;;;;;;;;;;;;;4988040;28;20020;-72
2022/07/20 01:31:20;;;;;;;;;;;;;;;;;;5002660;28;19930;-74
2022/07/20 01:33:47;;;;;;;;;;;;;;;;;;4999702;28;19926;-73
2022/07/20 01:36:15;;;;;;;;;;;;;;;;;;4985931;28;19929;-73
2022/07/20 01:38:42;;;;;;;;;;;;;;;;;;4991317;28;19964;-73
2022/07/20 01:41:10;;;;;;;;;;;;;;;;;;5002370;28;19932;-72
2022/07/20 01:43:37;;;;;;;;;;;;;;;;;;4999688;28;19933;-72
2022/07/20 01:46:04;;;;;;;;;;;;;;;;;;4984801;28;19987;-73
2022/07/20 01:48:32;;;;;;;;;;;;;;;;;;4983610;28;19933;-73
2022/07/20 01:50:59;;;;;;;;;;;;;;;;;;4996055;28;20367;-72
2022/07/20 01:53:26;;;;;;;;;;;;;;;;;;5001342;28;19936;-74
2022/07/20 01:55:55;;;;;;;;;;;;;;;;;;4969337;28;20000;-72
2022/07/20 01:58:22;;;;;;;;;;;;;;;;;;5004898;28;20926;-74
2022/07/20 02:00:50;;;;;;;;;;;;;;;;;;4979422;28;19965;-72
2022/07/20 02:03:17;;;;;;;;;;;;;;;;;;4984149;28;20289;-73
2022/07/20 02:05:45;;;;;;;;;;;;;;;;;;5003129;28;20427;-72
2022/07/20 02:08:12;;;;;;;;;;;;;;;;;;4988058;28;20149;-71
2022/07/20 02:10:40;;;;;;;;;;;;;;;;;;4992412;28;19980;-72
2022/07/20 02:13:07;;;;;;;;;;;;;;;;;;4982604;28;20372;-71
2022/07/20 02:18:21;;;;;;;;;;;;;;;;;;5003829;28;19929;-73
2022/07/20 02:20:48;;;;;;;;;;;;;;;;;;5005314;28;19939;-73
2022/07/20 02:23:15;;;;;;;;;;;;;;;;;;4996321;28;20320;-73
2022/07/20 02:25:43;;;;;;;;;;;;;;;;;;5001370;28;20766;-73
2022/07/20 02:28:10;;;;;;;;;;;;;;;;;;5001041;28;20029;-73
2022/07/20 02:30:38;;;;;;;;;;;;;;;;;;5004312;28;19936;-73
2022/07/20 02:33:06;;;;;;;;;;;;;;;;;;4993470;28;19926;-73
2022/07/20 02:35:33;;;;;;;;;;;;;;;;;;4999139;28;20393;-73
2022/07/20 02:38:00;;;;;;;;;;;;;;;;;;5004529;28;19984;-73
2022/07/20 02:40:27;;;;;;;;;;;;;;;;;;4999012;28;19930;-73
2022/07/20 02:42:55;;;;;;;;;;;;;;;;;;4994914;28;20015;-72
2022/07/20 02:45:22;;;;;;;;;;;;;;;;;;4995867;28;19930;-73
2022/07/20 02:47:49;;;;;;;;;;;;;;;;;;4991377;28;20036;-73
2022/07/20 02:50:16;;;;;;;;;;;;;;;;;;5000355;28;20009;-71
2022/07/20 02:52:44;;;;;;;;;;;;;;;;;;5072101;23;19924;-73
2022/07/20 02:55:11;;;;;;;;;;;;;;;;;;4995818;28;19925;-72
2022/07/20 02:57:38;;;;;;;;;;;;;;;;;;4995124;28;20037;-73
2022/07/20 03:00:06;;;;;;;;;;;;;;;;;;4986551;28;19930;-73
2022/07/20 03:02:33;;;;;;;;;;;;;;;;;;4977847;28;20043;-72
2022/07/20 03:05:00;;;;;;;;;;;;;;;;;;4980022;28;19929;-72
2022/07/20 03:07:28;;;;;;;;;;;;;;;;;;4971056;28;19930;-72
2022/07/20 03:09:55;;;;;;;;;;;;;;;;;;4973494;28;19932;-74
2022/07/20 03:12:22;;;;;;;;;;;;;;;;;;4966794;28;20021;-73
2022/07/20 03:14:49;;;;;;;;;;;;;;;;;;4986804;28;20011;-74
2022/07/20 03:17:17;;;;;;;;;;;;;;;;;;4987404;28;19929;-74
2022/07/20 03:19:44;;;;;;;;;;;;;;;;;;4985372;28;19936;-73
2022/07/20 03:22:11;;;;;;;;;;;;;;;;;;4994152;28;19952;-73
2022/07/20 03:24:38;;;;;;;;;;;;;;;;;;4983584;28;19929;-72
2022/07/20 03:27:06;;;;;;;;;;;;;;;;;;4984436;28;19930;-74
2022/07/20 03:29:33;;;;;;;;;;;;;;;;;;4990927;28;19929;-72
2022/07/20 03:32:00;;;;;;;;;;;;;;;;;;4992662;28;19933;-74
2022/07/20 03:34:28;;;;;;;;;;;;;;;;;;4987429;28;19945;-72
2022/07/20 03:36:55;;;;;;;;;;;;;;;;;;4975649;28;19956;-72
2022/07/20 03:39:23;;;;;;;;;;;;;;;;;;4968716;28;20019;-72
2022/07/20 03:41:50;;;;;;;;;;;;;;;;;;4994798;28;19973;-72
2022/07/20 03:44:17;;;;;;;;;;;;;;;;;;4974573;28;20238;-74
2022/07/20 03:46:44;;;;;;;;;;;;;;;;;;4973664;28;19933;-73
2022/07/20 03:49:12;;;;;;;;;;;;;;;;;;4996228;28;20352;-71
2022/07/20 03:51:39;;;;;;;;;;;;;;;;;;4971826;28;20424;-73
2022/07/20 03:54:07;;;;;;;;;;;;;;;;;;4978213;28;19936;-73
2022/07/20 03:56:39;;;;;;;;;;;;;;;;;;4976182;28;20007;-72
2022/07/20 03:59:07;;;;;;;;;;;;;;;;;;4981962;28;20393;-73
2022/07/20 04:01:34;;;;;;;;;;;;;;;;;;4977782;28;19930;-73
2022/07/20 04:04:01;;;;;;;;;;;;;;;;;;4990178;28;19971;-73
2022/07/20 04:06:29;;;;;;;;;;;;;;;;;;4979227;28;20021;-73
2022/07/20 04:08:56;;;;;;;;;;;;;;;;;;4985406;28;19972;-73
2022/07/20 04:11:23;;;;;;;;;;;;;;;;;;4985954;28;19973;-74
2022/07/20 04:13:51;;;;;;;;;;;;;;;;;;4989597;28;19937;-74
2022/07/20 04:16:18;;;;;;;;;;;;;;;;;;4987137;28;19932;-71
2022/07/20 04:18:46;;;;;;;;;;;;;;;;;;4977936;28;19972;-73
2022/07/20 04:21:17;;;;;;;;;;;;;;;;;;4968730;28;19952;-73
2022/07/20 04:23:45;;;;;;;;;;;;;;;;;;4976790;28;19938;-73
2022/07/20 04:26:13;;;;;;;;;;;;;;;;;;4972017;28;19936;-73
2022/07/20 04:28:41;;;;;;;;;;;;;;;;;;4978522;28;19930;-74
2022/07/20 04:31:08;;;;;;;;;;;;;;;;;;4983612;28;20020;-74
2022/07/20 04:33:35;;;;;;;;;;;;;;;;;;4983880;28;19978;-72
2022/07/20 04:36:04;;;;;;;;;;;;;;;;;;4977465;28;19940;-72
2022/07/20 04:38:31;;;;;;;;;;;;;;;;;;4988429;28;20052;-73
2022/07/20 04:40:58;;;;;;;;;;;;;;;;;;4975992;28;19968;-73
2022/07/20 04:43:26;;;;;;;;;;;;;;;;;;4983381;28;20717;-71
2022/07/20 04:45:53;;;;;;;;;;;;;;;;;;4981729;28;19929;-73
2022/07/20 04:48:24;;;;;;;;;;;;;;;;;;4978999;28;19926;-74
2022/07/20 04:50:51;;;;;;;;;;;;;;;;;;4978873;28;19977;-73
2022/07/20 04:53:18;;;;;;;;;;;;;;;;;;4982149;28;20569;-72
2022/07/20 04:55:45;;;;;;;;;;;;;;;;;;4978222;28;19925;-73
2022/07/20 04:58:13;;;;;;;;;;;;;;;;;;4970424;28;20028;-73
2022/07/20 05:00:40;;;;;;;;;;;;;;;;;;4971289;28;20423;-73
2022/07/20 05:03:07;;;;;;;;;;;;;;;;;;4969722;28;19929;-74
2022/07/20 05:05:34;;;;;;;;;;;;;;;;;;4981900;28;20320;-72
2022/07/20 05:08:02;;;;;;;;;;;;;;;;;;4976610;28;19972;-73
2022/07/20 05:10:30;;;;;;;;;;;;;;;;;;4983115;28;19933;-74
2022/07/20 05:12:57;;;;;;;;;;;;;;;;;;4970971;28;19926;-74
2022/07/20 05:15:24;;;;;;;;;;;;;;;;;;4964696;28;19934;-72
2022/07/20 05:17:52;;;;;;;;;;;;;;;;;;4972632;28;19948;-72
2022/07/20 05:20:19;;;;;;;;;;;;;;;;;;4965973;28;19934;-74
2022/07/20 05:22:46;;;;;;;;;;;;;;;;;;4969405;28;20341;-73
2022/07/20 05:25:13;;;;;;;;;;;;;;;;;;4965064;28;19969;-73
2022/07/20 05:27:41;;;;;;;;;;;;;;;;;;4964935;28;19992;-72
2022/07/20 05:30:08;;;;;;;;;;;;;;;;;;4966291;28;19941;-72
2022/07/20 05:32:36;;;;;;;;;;;;;;;;;;4966508;28;19933;-73
2022/07/20 05:35:04;;;;;;;;;;;;;;;;;;4967476;28;19937;-74
2022/07/20 05:37:31;;;;;;;;;;;;;;;;;;4963812;28;20028;-73
2022/07/20 05:39:58;;;;;;;;;;;;;;;;;;4973005;28;19934;-73
2022/07/20 05:42:26;;;;;;;;;;;;;;;;;;4968576;28;20317;-72
2022/07/20 05:44:53;;;;;;;;;;;;;;;;;;4967348;28;20604;-73
2022/07/20 05:47:20;;;;;;;;;;;;;;;;;;4967604;28;19965;-72
2022/07/20 05:49:48;;;;;;;;;;;;;;;;;;4968246;28;19959;-73
2022/07/20 05:52:15;;;;;;;;;;;;;;;;;;4963763;28;19930;-73
2022/07/20 05:54:43;;;;;;;;;;;;;;;;;;4965857;28;19934;-72
2022/07/20 05:57:10;;;;;;;;;;;;;;;;;;4964577;28;19984;-72
2022/07/20 05:59:39;;;;;;;;;;;;;;;;;;4958026;28;19934;-72
2022/07/20 06:02:08;;;;;;;;;;;;;;;;;;4963962;28;19940;-73
2022/07/20 06:04:35;;;;;;;;;;;;;;;;;;4967954;28;19934;-72
2022/07/20 06:07:03;;;;;;;;;;;;;;;;;;4961417;28;19969;-71
2022/07/20 06:09:30;;;;;;;;;;;;;;;;;;4964586;28;20864;-73
2022/07/20 06:11:58;;;;;;;;;;;;;;;;;;4966740;28;19934;-73
2022/07/20 06:14:25;;;;;;;;;;;;;;;;;;4965922;28;19945;-71
2022/07/20 06:16:52;;;;;;;;;;;;;;;;;;4958559;28;19952;-72
2022/07/20 06:19:20;;;;;;;;;;;;;;;;;;4977846;28;19930;-71
2022/07/20 06:21:47;;;;;;;;;;;;;;;;;;4977456;28;19980;-73
2022/07/20 06:24:14;;;;;;;;;;;;;;;;;;4978964;28;20423;-73
2022/07/20 06:26:44;;;;;;;;;;;;;;;;;;4968456;28;20035;-72
2022/07/20 06:29:11;;;;;;;;;;;;;;;;;;4961931;28;19952;-73
2022/07/20 06:31:42;;;;;;;;;;;;;;;;;;4978724;28;19933;-73
2022/07/20 06:34:29;;;;;;;;;;;;;;;;;;4960863;28;20067;-72
2022/07/20 06:36:57;;;;;;;;;;;;;;;;;;4961545;28;19988;-72
2022/07/20 06:39:25;;;;;;;;;;;;;;;;;;4970558;28;19988;-72
2022/07/20 06:41:53;;;;;;;;;;;;;;;;;;4966962;28;19942;-71
2022/07/20 06:44:20;;;;;;;;;;;;;;;;;;4982598;28;19926;-73
2022/07/20 06:46:47;;;;;;;;;;;;;;;;;;4971261;28;19984;-71
2022/07/20 06:49:18;;;;;;;;;;;;;;;;;;4986224;28;20476;-72
2022/07/20 06:51:46;;;;;;;;;;;;;;;;;;4972574;28;19930;-73
2022/07/20 06:54:13;;;;;;;;;;;;;;;;;;4973620;28;20783;-75
2022/07/20 06:56:41;;;;;;;;;;;;;;;;;;4974020;28;19930;-71
2022/07/20 06:59:08;;;;;;;;;;;;;;;;;;4969244;28;19934;-74
2022/07/20 07:01:35;;;;;;;;;;;;;;;;;;4966384;28;20019;-71
2022/07/20 07:04:03;;;;;;;;;;;;;;;;;;4986911;28;19946;-72
2022/07/20 07:06:32;;;;;;;;;;;;;;;;;;4979563;28;20653;-72
2022/07/20 07:08:59;;;;;;;;;;;;;;;;;;4981161;28;20666;-73
2022/07/20 07:11:27;;;;;;;;;;;;;;;;;;4979816;28;19929;-71
2022/07/20 07:13:54;;;;;;;;;;;;;;;;;;4979133;28;19929;-73
2022/07/20 07:16:21;;;;;;;;;;;;;;;;;;4972679;28;20274;-73
2022/07/20 07:18:49;;;;;;;;;;;;;;;;;;4974798;28;19925;-70
2022/07/20 07:21:17;;;;;;;;;;;;;;;;;;4985602;28;19929;-73
2022/07/20 07:23:49;;;;;;;;;;;;;;;;;;4977448;28;19968;-73
2022/07/20 07:26:16;;;;;;;;;;;;;;;;;;4976618;28;20433;-73
2022/07/20 07:28:44;;;;;;;;;;;;;;;;;;4985182;28;19945;-72
2022/07/20 07:31:11;;;;;;;;;;;;;;;;;;4980292;28;19930;-72
2022/07/20 07:33:39;;;;;;;;;;;;;;;;;;4980683;28;20025;-72
2022/07/20 07:36:06;;;;;;;;;;;;;;;;;;4973280;28;19926;-72
2022/07/20 07:38:33;;;;;;;;;;;;;;;;;;4968137;28;19941;-72
2022/07/20 07:41:01;;;;;;;;;;;;;;;;;;4968355;28;19940;-71
2022/07/20 07:43:28;;;;;;;;;;;;;;;;;;4977827;28;20291;-71
2022/07/20 07:45:55;;;;;;;;;;;;;;;;;;4975824;28;20389;-72
2022/07/20 07:48:23;;;;;;;;;;;;;;;;;;4971289;28;19937;-71
2022/07/20 07:50:50;;;;;;;;;;;;;;;;;;4977158;28;19940;-71
2022/07/20 07:53:18;;;;;;;;;;;;;;;;;;4976477;28;19949;-70
2022/07/20 07:55:45;;;;;;;;;;;;;;;;;;4979390;28;19926;-72
2022/07/20 07:58:12;;;;;;;;;;;;;;;;;;4967134;28;20421;-72
2022/07/20 08:00:39;;;;;;;;;;;;;;;;;;4972860;28;20377;-70
2022/07/20 08:03:07;;;;;;;;;;;;;;;;;;4970921;28;19929;-72
2022/07/20 08:05:34;;;;;;;;;;;;;;;;;;4974174;28;20015;-72
2022/07/20 08:08:01;;;;;;;;;;;;;;;;;;4975217;28;20005;-71
2022/07/20 08:10:29;;;;;;;;;;;;;;;;;;4977643;28;19930;-71
2022/07/20 08:13:03;;;;;;;;;;;;;;;;;;4975795;28;19989;-69
2022/07/20 08:15:30;;;;;;;;;;;;;;;;;;4968210;28;20376;-70
2022/07/20 08:17:58;;;;;;;;;;;;;;;;;;4974670;28;19957;-72
2022/07/20 08:20:25;;;;;;;;;;;;;;;;;;4986289;28;20416;-71
2022/07/20 08:22:52;;;;;;;;;;;;;;;;;;4973078;28;19934;-71
2022/07/20 08:25:19;;;;;;;;;;;;;;;;;;4981998;28;19970;-72
2022/07/20 08:27:47;;;;;;;;;;;;;;;;;;4985891;28;20020;-70
2022/07/20 08:30:14;;;;;;;;;;;;;;;;;;4986173;28;20715;-71
2022/07/20 08:33:01;;;;;;;;;;;;;;;;;;4986056;28;20369;-70
2022/07/20 08:35:28;;;;;;;;;;;;;;;;;;4970003;28;19932;-71
2022/07/20 08:37:56;;;;;;;;;;;;;;;;;;4980158;28;19926;-71
2022/07/20 08:40:24;;;;;;;;;;;;;;;;;;4981797;28;19976;-71
2022/07/20 08:42:51;;;;;;;;;;;;;;;;;;4982991;28;20375;-71
2022/07/20 08:45:18;;;;;;;;;;;;;;;;;;4992517;28;19989;-70
2022/07/20 08:47:46;;;;;;;;;;;;;;;;;;4987570;28;20021;-71
2022/07/20 08:50:13;;;;;;;;;;;;;;;;;;4981280;28;19944;-71
2022/07/20 08:52:40;;;;;;;;;;;;;;;;;;4970664;28;20065;-70
2022/07/20 08:55:10;;;;;;;;;;;;;;;;;;5065463;23;20432;-75
2022/07/20 08:57:37;;;;;;;;;;;;;;;;;;5025861;28;19940;-75
2022/07/20 09:00:04;;;;;;;;;;;;;;;;;;5018623;28;20397;-75
2022/07/20 09:02:32;;;;;;;;;;;;;;;;;;4994516;28;20060;-75
2022/07/20 09:05:01;;;;;;;;;;;;;;;;;;4979230;28;19926;-75
2022/07/20 09:07:28;;;;;;;;;;;;;;;;;;4973649;28;20432;-75
2022/07/20 09:09:55;;;;;;;;;;;;;;;;;;5005841;28;19932;-76
2022/07/20 09:12:22;;;;;;;;;;;;;;;;;;5008223;28;19960;-75
2022/07/20 09:14:52;;;;;;;;;;;;;;;;;;5006616;28;19932;-76
2022/07/20 09:17:19;;;;;;;;;;;;;;;;;;4988008;28;20270;-75
2022/07/20 09:19:47;;;;;;;;;;;;;;;;;;5000593;28;19933;-75
2022/07/20 09:22:14;;;;;;;;;;;;;;;;;;4982823;28;20649;-75
2022/07/20 09:24:41;;;;;;;;;;;;;;;;;;4977575;28;19933;-74
2022/07/20 09:27:09;;;;;;;;;;;;;;;;;;4999329;28;19933;-75
2022/07/20 09:29:37;;;;;;;;;;;;;;;;;;5009341;28;20452;-74
2022/07/20 09:32:04;;;;;;;;;;;;;;;;;;4990206;28;19929;-75
2022/07/20 09:34:32;;;;;;;;;;;;;;;;;;5002197;28;19929;-75
2022/07/20 09:36:59;;;;;;;;;;;;;;;;;;4989065;28;19969;-75
2022/07/20 09:39:26;;;;;;;;;;;;;;;;;;4988360;28;19933;-76
2022/07/20 09:41:54;;;;;;;;;;;;;;;;;;4981297;28;20354;-75
2022/07/20 09:44:21;;;;;;;;;;;;;;;;;;4976300;28;19933;-74
2022/07/20 09:46:48;;;;;;;;;;;;;;;;;;4999061;28;19929;-76
2022/07/20 09:49:16;;;;;;;;;;;;;;;;;;4999557;28;19937;-75
2022/07/20 09:51:43;;;;;;;;;;;;;;;;;;4989178;28;20397;-75
2022/07/20 09:54:10;;;;;;;;;;;;;;;;;;4993064;28;19936;-75
2022/07/20 09:56:37;;;;;;;;;;;;;;;;;;4959915;28;19956;-74
2022/07/20 09:59:05;;;;;;;;;;;;;;;;;;4975192;28;20400;-75
2022/07/20 10:01:32;;;;;;;;;;;;;;;;;;4993167;28;19930;-75
2022/07/20 10:03:59;;;;;;;;;;;;;;;;;;4996915;28;19972;-75
2022/07/20 10:06:27;;;;;;;;;;;;;;;;;;4988848;28;19984;-75
2022/07/20 10:08:59;;;;;;;;;;;;;;;;;;5001988;28;19929;-75
2022/07/20 10:11:27;;;;;;;;;;;;;;;;;;4996809;28;20401;-75
2022/07/20 10:13:54;;;;;;;;;;;;;;;;;;4996855;28;19997;-76
2022/07/20 10:16:21;;;;;;;;;;;;;;;;;;5006460;28;19930;-76
2022/07/20 10:18:49;;;;;;;;;;;;;;;;;;5008217;28;19979;-74
2022/07/20 10:21:16;;;;;;;;;;;;;;;;;;5005435;28;19926;-73
2022/07/20 10:23:44;;;;;;;;;;;;;;;;;;4994638;28;20316;-74
2022/07/20 10:26:11;;;;;;;;;;;;;;;;;;4996126;28;19936;-73
2022/07/20 10:28:38;;;;;;;;;;;;;;;;;;4993994;28;20016;-74
2022/07/20 10:31:06;;;;;;;;;;;;;;;;;;4986892;28;20100;-71
2022/07/20 10:33:33;;;;;;;;;;;;;;;;;;4994092;28;20029;-73
2022/07/20 10:38:47;;;;;;;;;;;;;;;;;;5000214;28;19929;-73
2022/07/20 10:41:33;;;;;;;;;;;;;;;;;;4991903;28;19964;-73
2022/07/20 10:44:00;;;;;;;;;;;;;;;;;;4996368;28;19938;-74
2022/07/20 10:46:27;;;;;;;;;;;;;;;;;;5002677;28;20841;-73
2022/07/20 10:48:54;;;;;;;;;;;;;;;;;;5002197;28;19933;-73
2022/07/20 10:51:22;;;;;;;;;;;;;;;;;;4993988;28;19968;-74
2022/07/20 10:53:49;;;;;;;;;;;;;;;;;;4997390;28;19936;-72
2022/07/20 10:56:16;;;;;;;;;;;;;;;;;;4996427;28;20377;-74
2022/07/20 10:58:44;;;;;;;;;;;;;;;;;;4993554;28;19934;-73
2022/07/20 11:01:11;;;;;;;;;;;;;;;;;;4973480;28;19929;-74
2022/07/20 11:03:38;;;;;;;;;;;;;;;;;;4987380;28;20344;-75
2022/07/20 11:06:06;;;;;;;;;;;;;;;;;;4990594;28;19930;-74
2022/07/20 11:08:34;;;;;;;;;;;;;;;;;;4990782;28;20036;-75
2022/07/20 11:11:01;;;;;;;;;;;;;;;;;;4986473;28;20016;-73
2022/07/20 11:13:29;;;;;;;;;;;;;;;;;;4989042;28;19929;-74
2022/07/20 11:15:57;;;;;;;;;;;;;;;;;;4984705;28;19933;-74
2022/07/20 11:18:32;;;;;;;;;;;;;;;;;;4997444;28;19939;-73
2022/07/20 11:20:59;;;;;;;;;;;;;;;;;;4973510;28;19988;-74
2022/07/20 11:23:26;;;;;;;;;;;;;;;;;;4995298;28;20028;-74
2022/07/20 11:25:54;;;;;;;;;;;;;;;;;;4990483;28;19929;-75
2022/07/20 11:28:21;;;;;;;;;;;;;;;;;;4990351;28;20386;-74
2022/07/20 11:30:48;;;;;;;;;;;;;;;;;;4988436;28;19949;-75
2022/07/20 11:33:16;;;;;;;;;;;;;;;;;;4979147;28;19976;-74
2022/07/20 11:35:43;;;;;;;;;;;;;;;;;;4992993;28;19936;-74
2022/07/20 11:38:10;;;;;;;;;;;;;;;;;;4986307;28;19929;-73
2022/07/20 11:40:40;;;;;;;;;;;;;;;;;;4969172;28;20416;-73
2022/07/20 11:43:07;;;;;;;;;;;;;;;;;;4984303;28;19980;-73
2022/07/20 11:45:35;;;;;;;;;;;;;;;;;;4989057;28;19933;-70
2022/07/20 11:48:03;;;;;;;;;;;;;;;;;;4995322;28;19926;-74
2022/07/20 11:50:50;;;;;;;;;;;;;;;;;;4995051;28;20027;-74
2022/07/20 11:53:17;;;;;;;;;;;;;;;;;;4997128;28;20024;-73
2022/07/20 11:55:45;;;;;;;;;;;;;;;;;;4999633;28;19952;-74
2022/07/20 11:58:12;;;;;;;;;;;;;;;;;;4999795;28;19934;-74
2022/07/20 12:00:39;;;;;;;;;;;;;;;;;;5014975;28;19961;-73
2022/07/20 12:03:06;;;;;;;;;;;;;;;;;;5008493;28;19933;-74
2022/07/20 12:05:34;;;;;;;;;;;;;;;;;;5006004;28;20040;-75
2022/07/20 12:08:07;;;;;;;;;;;;;;;;;;4998795;28;20282;-73
2022/07/20 12:10:36;;;;;;;;;;;;;;;;;;4997077;28;19957;-73
2022/07/20 12:13:03;;;;;;;;;;;;;;;;;;5004879;28;19936;-75
2022/07/20 12:15:31;;;;;;;;;;;;;;;;;;5000889;28;19925;-74
2022/07/20 12:17:58;;;;;;;;;;;;;;;;;;5000747;28;19930;-75
2022/07/20 12:20:25;;;;;;;;;;;;;;;;;;4999195;28;20029;-74
2022/07/20 12:22:52;;;;;;;;;;;;;;;;;;4996477;28;20405;-75
2022/07/20 12:25:20;;;;;;;;;;;;;;;;;;4980237;28;20690;-74
2022/07/20 12:27:47;;;;;;;;;;;;;;;;;;4995660;28;19926;-74
2022/07/20 12:30:14;;;;;;;;;;;;;;;;;;4993707;28;19929;-75
2022/07/20 12:32:41;;;;;;;;;;;;;;;;;;4997011;28;19930;-76
2022/07/20 12:35:09;;;;;;;;;;;;;;;;;;4999277;28;19954;-74
2022/07/20 12:37:36;;;;;;;;;;;;;;;;;;4999410;28;20447;-76
2022/07/20 12:40:03;;;;;;;;;;;;;;;;;;4997473;28;20359;-75
2022/07/20 12:42:30;;;;;;;;;;;;;;;;;;4993157;28;19929;-73
2022/07/20 12:45:05;;;;;;;;;;;;;;;;;;5003155;28;19929;-73
2022/07/20 12:47:32;;;;;;;;;;;;;;;;;;4988911;28;20566;-75
2022/07/20 12:50:20;;;;;;;;;;;;;;;;;;5009445;28;19926;-74
2022/07/20 12:52:47;;;;;;;;;;;;;;;;;;4996617;28;19936;-74
2022/07/20 12:55:15;;;;;;;;;;;;;;;;;;4997258;28;19984;-74
2022/07/20 12:57:42;;;;;;;;;;;;;;;;;;4998590;28;19930;-74
2022/07/20 13:00:09;;;;;;;;;;;;;;;;;;4989619;28;19961;-75
2022/07/20 13:02:36;;;;;;;;;;;;;;;;;;5005745;28;19930;-74
2022/07/20 13:05:04;;;;;;;;;;;;;;;;;;4996453;28;19941;-71
2022/07/20 13:07:31;;;;;;;;;;;;;;;;;;4992235;28;20460;-74
2022/07/20 13:09:58;;;;;;;;;;;;;;;;;;4999187;28;19929;-72
2022/07/20 13:12:26;;;;;;;;;;;;;;;;;;5000058;28;19983;-73
2022/07/20 13:14:53;;;;;;;;;;;;;;;;;;5005706;28;19981;-73
2022/07/20 13:17:38;;;;;;;;;;;;;;;;;;4999761;28;19929;-75
2022/07/20 13:20:06;;;;;;;;;;;;;;;;;;4993922;28;20024;-73
2022/07/20 13:22:33;;;;;;;;;;;;;;;;;;4977509;28;20012;-73
2022/07/20 13:25:01;;;;;;;;;;;;;;;;;;4999526;28;19952;-75
2022/07/20 13:27:28;;;;;;;;;;;;;;;;;;4996628;28;20450;-75
2022/07/20 13:29:55;;;;;;;;;;;;;;;;;;4988662;28;20360;-74
2022/07/20 13:32:22;;;;;;;;;;;;;;;;;;4999020;28;19961;-72
2022/07/20 13:34:50;;;;;;;;;;;;;;;;;;5006232;28;19936;-73
2022/07/20 13:37:17;;;;;;;;;;;;;;;;;;4986293;28;19944;-74
2022/07/20 13:39:45;;;;;;;;;;;;;;;;;;5003767;28;19932;-75
2022/07/20 13:42:14;;;;;;;;;;;;;;;;;;5000228;28;19996;-75
2022/07/20 13:44:41;;;;;;;;;;;;;;;;;;4984585;28;19930;-74
2022/07/20 13:47:08;;;;;;;;;;;;;;;;;;4999892;28;19926;-74
2022/07/20 13:49:35;;;;;;;;;;;;;;;;;;5003678;28;20397;-73
2022/07/20 13:52:03;;;;;;;;;;;;;;;;;;5003144;28;20380;-75
2022/07/20 13:54:49;;;;;;;;;;;;;;;;;;4987489;28;20324;-73
2022/07/20 13:57:17;;;;;;;;;;;;;;;;;;4985251;28;20411;-72
2022/07/20 13:59:44;;;;;;;;;;;;;;;;;;5000641;28;19930;-73
2022/07/20 14:02:11;;;;;;;;;;;;;;;;;;5005919;28;19926;-73
2022/07/20 14:04:38;;;;;;;;;;;;;;;;;;5012409;28;19951;-72
2022/07/20 14:07:06;;;;;;;;;;;;;;;;;;4998916;28;19936;-73
2022/07/20 14:09:33;;;;;;;;;;;;;;;;;;4999387;28;19926;-74
2022/07/20 14:12:00;;;;;;;;;;;;;;;;;;5004242;28;19930;-73
2022/07/20 14:14:28;;;;;;;;;;;;;;;;;;5006595;28;19948;-71
2022/07/20 14:16:56;;;;;;;;;;;;;;;;;;4998630;28;19930;-73
2022/07/20 14:19:23;;;;;;;;;;;;;;;;;;4987274;28;19925;-74
2022/07/20 14:21:51;;;;;;;;;;;;;;;;;;4971545;28;19936;-74
2022/07/20 14:24:19;;;;;;;;;;;;;;;;;;5005709;28;19976;-74
2022/07/20 14:26:46;;;;;;;;;;;;;;;;;;5008930;28;19926;-72
2022/07/20 14:29:13;;;;;;;;;;;;;;;;;;4990096;28;19973;-71
2022/07/20 14:31:41;;;;;;;;;;;;;;;;;;4996869;28;20442;-72
2022/07/20 14:34:08;;;;;;;;;;;;;;;;;;4990254;28;19930;-73
2022/07/20 14:36:36;;;;;;;;;;;;;;;;;;4995776;28;19933;-73
2022/07/20 14:39:04;;;;;;;;;;;;;;;;;;4993497;28;19937;-72
2022/07/20 14:41:32;;;;;;;;;;;;;;;;;;4977167;28;20027;-73
2022/07/20 14:43:59;;;;;;;;;;;;;;;;;;4995688;28;19926;-73
2022/07/20 14:46:26;;;;;;;;;;;;;;;;;;4996683;28;19930;-71
2022/07/20 14:48:53;;;;;;;;;;;;;;;;;;4990468;28;19930;-71
2022/07/20 14:51:21;;;;;;;;;;;;;;;;;;4995738;28;19981;-71
2022/07/20 14:56:32;;;;;;;;;;;;;;;;;;4915447;29;19931;-77
2022/07/20 14:58:59;;;;;;;;;;;;;;;;;;4926172;29;20005;-76
2022/07/20 15:01:27;;;;;;;;;;;;;;;;;;4928276;29;20017;-77
2022/07/20 15:03:54;;;;;;;;;;;;;;;;;;4933906;29;20065;-76
2022/07/20 15:06:26;;;;;;;;;;;;;;;;;;4932886;28;19930;-79
2022/07/20 15:08:54;;;;;;;;;;;;;;;;;;4938628;28;19989;-80
2022/07/20 15:11:22;;;;;;;;;;;;;;;;;;4928590;28;19933;-78
2022/07/20 15:13:49;;;;;;;;;;;;;;;;;;4949105;28;20414;-76
2022/07/20 15:16:16;;;;;;;;;;;;;;;;;;4965176;28;19930;-76
2022/07/20 15:18:44;;;;;;;;;;;;;;;;;;4964364;28;20463;-73
2022/07/20 15:21:11;;;;;;;;;;;;;;;;;;4965613;28;19985;-78
2022/07/20 15:23:38;;;;;;;;;;;;;;;;;;4948002;28;19931;-76
2022/07/20 15:26:05;;;;;;;;;;;;;;;;;;4931038;29;19934;-77
2022/07/20 15:28:33;;;;;;;;;;;;;;;;;;4933309;29;20271;-78
2022/07/20 15:31:00;;;;;;;;;;;;;;;;;;4950221;29;19927;-77
2022/07/20 15:33:30;;;;;;;;;;;;;;;;;;4949808;29;19937;-77
2022/07/20 15:35:57;;;;;;;;;;;;;;;;;;4949690;29;20262;-78
2022/07/20 15:38:24;;;;;;;;;;;;;;;;;;4939836;28;20020;-73
2022/07/20 15:40:53;;;;;;;;;;;;;;;;;;4948823;28;19930;-77
2022/07/20 15:43:20;;;;;;;;;;;;;;;;;;4934462;29;19977;-77
2022/07/20 15:45:48;;;;;;;;;;;;;;;;;;4943887;28;19931;-77
2022/07/20 15:48:15;;;;;;;;;;;;;;;;;;4931884;29;19938;-77
2022/07/20 15:50:43;;;;;;;;;;;;;;;;;;4930274;29;20469;-76
2022/07/20 15:53:10;;;;;;;;;;;;;;;;;;4948086;28;20024;-77
2022/07/20 15:55:37;;;;;;;;;;;;;;;;;;4949019;28;19930;-77
2022/07/20 15:58:05;;;;;;;;;;;;;;;;;;4948322;29;20013;-78
2022/07/20 16:00:32;;;;;;;;;;;;;;;;;;4948796;29;19930;-77
2022/07/20 16:02:59;;;;;;;;;;;;;;;;;;4947023;29;19942;-76
2022/07/20 16:05:27;;;;;;;;;;;;;;;;;;4946227;28;19942;-74
2022/07/20 16:07:54;;;;;;;;;;;;;;;;;;4949677;28;19927;-76
2022/07/20 16:10:26;;;;;;;;;;;;;;;;;;4935391;29;19936;-75
2022/07/20 16:12:53;;;;;;;;;;;;;;;;;;4937639;28;19967;-74
2022/07/20 16:15:21;;;;;;;;;;;;;;;;;;4932524;29;20021;-76
2022/07/20 16:17:48;;;;;;;;;;;;;;;;;;4929551;29;20028;-75
2022/07/20 16:20:15;;;;;;;;;;;;;;;;;;4944746;29;19939;-76
2022/07/20 16:22:43;;;;;;;;;;;;;;;;;;4947444;28;20017;-76
2022/07/20 16:25:10;;;;;;;;;;;;;;;;;;4944981;28;19934;-75
2022/07/20 16:27:43;;;;;;;;;;;;;;;;;;4939416;29;20386;-76
2022/07/20 16:30:10;;;;;;;;;;;;;;;;;;4929494;28;19935;-76
2022/07/20 16:32:37;;;;;;;;;;;;;;;;;;4931681;28;20653;-73
2022/07/20 16:35:05;;;;;;;;;;;;;;;;;;4944719;28;19926;-74
2022/07/20 16:37:32;;;;;;;;;;;;;;;;;;4934536;28;19937;-74
2022/07/20 16:39:59;;;;;;;;;;;;;;;;;;4932980;29;20124;-74
2022/07/20 16:42:26;;;;;;;;;;;;;;;;;;4938837;29;19965;-74
2022/07/20 16:44:59;;;;;;;;;;;;;;;;;;4937008;29;20313;-74
2022/07/20 16:47:26;;;;;;;;;;;;;;;;;;4932555;28;19930;-75
2022/07/20 16:49:53;;;;;;;;;;;;;;;;;;4930265;28;20389;-74
2022/07/20 16:52:21;;;;;;;;;;;;;;;;;;4942805;28;19938;-74
2022/07/20 16:54:48;;;;;;;;;;;;;;;;;;4940945;28;19934;-74
2022/07/20 16:57:15;;;;;;;;;;;;;;;;;;4944670;29;19950;-74
2022/07/20 16:59:43;;;;;;;;;;;;;;;;;;4944706;29;19942;-75